Bostwick, Nebraska
Current Conditions -  °F | °C
As of 5:55 AM on Monday 24 Nov 2014 (Local Time) from KHJH Reporting Station
Clear Clear  
Wind Chill: 21°   Ceiling: Unl
Heat Index: 32°   Visibility: 10mi
Dew Point: 21°   Wind: 16mph
Humidity: 65%   Direction: 310°NW
Pressure: 29.69"   Gusts: 23mph
Location:  40.0896°N, 98.1623°W
Report Text: KHJH 241155Z AUTO 31014G20KT 10SM CLR 00/M06 A2969 RMK AO2 70001 T10021060 10025 21006
Loading
Personal Weather Stations






























Interactive Weather Map New forecast layout! Learn more

10-Day Weather Forecast

Advertisements
Track Severe Weather on mobile